sensor_id;sensor_type;location;lat;lon;timestamp;pressure;altitude;pressure_sealevel;temperature;humidity
9523;BME280;63165;43.016;25.784;2023-08-31T00:02:05;99289.22;;;22.18;100.00
9523;BME280;63165;43.016;25.784;2023-08-31T00:04:35;99210.91;;;21.74;100.00
9523;BME280;63165;43.016;25.784;2023-08-31T00:07:03;99205.47;;;21.76;100.00
9523;BME280;63165;43.016;25.784;2023-08-31T00:09:38;99224.97;;;21.76;100.00
9523;BME280;63165;43.016;25.784;2023-08-31T00:12:06;99258.06;;;21.96;100.00
9523;BME280;63165;43.016;25.784;2023-08-31T00:14:34;99298.97;;;22.42;100.00
9523;BME280;63165;43.016;25.784;2023-08-31T00:17:03;99212.97;;;21.70;100.00
9523;BME280;63165;43.016;25.784;2023-08-31T00:19:31;99234.50;;;21.79;100.00
9523;BME280;63165;43.016;25.784;2023-08-31T00:21:59;99227.34;;;21.57;100.00
9523;BME280;63165;43.016;25.784;2023-08-31T00:24:26;99240.22;;;21.85;100.00
9523;BME280;63165;43.016;25.784;2023-08-31T00:26:59;99301.00;;;22.27;100.00
9523;BME280;63165;43.016;25.784;2023-08-31T00:29:27;99203.34;;;21.45;100.00
9523;BME280;63165;43.016;25.784;2023-08-31T00:31:55;99284.88;;;21.82;100.00
9523;BME280;63165;43.016;25.784;2023-08-31T00:34:23;99229.41;;;21.40;100.00
9523;BME280;63165;43.016;25.784;2023-08-31T00:36:51;99246.16;;;21.78;100.00
9523;BME280;63165;43.016;25.784;2023-08-31T00:39:19;99242.47;;;21.43;100.00
9523;BME280;63165;43.016;25.784;2023-08-31T00:41:46;99242.78;;;21.51;100.00
9523;BME280;63165;43.016;25.784;2023-08-31T00:44:17;99283.44;;;21.78;100.00
9523;BME280;63165;43.016;25.784;2023-08-31T00:46:45;99257.09;;;21.62;100.00
9523;BME280;63165;43.016;25.784;2023-08-31T00:49:13;99239.50;;;21.48;100.00
9523;BME280;63165;43.016;25.784;2023-08-31T00:51:42;99342.25;;;22.21;100.00
9523;BME280;63165;43.016;25.784;2023-08-31T00:54:14;99245.97;;;21.57;100.00
9523;BME280;63165;43.016;25.784;2023-08-31T00:56:42;99219.31;;;21.45;100.00
9523;BME280;63165;43.016;25.784;2023-08-31T00:59:10;99332.09;;;22.15;100.00
9523;BME280;63165;43.016;25.784;2023-08-31T01:01:48;99282.19;;;21.70;100.00
9523;BME280;63165;43.016;25.784;2023-08-31T01:04:21;99247.78;;;21.43;100.00
9523;BME280;63165;43.016;25.784;2023-08-31T01:06:58;99241.09;;;21.50;100.00
9523;BME280;63165;43.016;25.784;2023-08-31T01:09:36;99244.22;;;21.44;100.00
9523;BME280;63165;43.016;25.784;2023-08-31T01:12:10;99290.28;;;22.04;100.00
9523;BME280;63165;43.016;25.784;2023-08-31T01:14:44;99300.66;;;21.85;100.00
9523;BME280;63165;43.016;25.784;2023-08-31T01:17:17;99220.03;;;21.47;100.00
9523;BME280;63165;43.016;25.784;2023-08-31T01:19:49;99182.53;;;21.26;100.00
9523;BME280;63165;43.016;25.784;2023-08-31T01:22:38;99239.53;;;21.35;100.00
9523;BME280;63165;43.016;25.784;2023-08-31T01:25:11;99244.28;;;21.43;100.00
9523;BME280;63165;43.016;25.784;2023-08-31T01:27:39;99247.88;;;21.30;100.00
9523;BME280;63165;43.016;25.784;2023-08-31T01:30:08;99355.22;;;22.15;100.00
9523;BME280;63165;43.016;25.784;2023-08-31T01:32:36;99206.38;;;21.28;100.00
9523;BME280;63165;43.016;25.784;2023-08-31T01:35:05;99246.91;;;21.31;100.00
9523;BME280;63165;43.016;25.784;2023-08-31T01:37:39;99261.81;;;21.34;100.00
9523;BME280;63165;43.016;25.784;2023-08-31T01:40:14;99276.34;;;21.65;100.00
9523;BME280;63165;43.016;25.784;2023-08-31T01:42:45;99323.66;;;21.97;100.00
9523;BME280;63165;43.016;25.784;2023-08-31T01:45:19;99268.72;;;21.61;100.00
9523;BME280;63165;43.016;25.784;2023-08-31T01:47:48;99277.47;;;21.26;100.00
9523;BME280;63165;43.016;25.784;2023-08-31T01:50:16;99265.16;;;21.25;100.00
9523;BME280;63165;43.016;25.784;2023-08-31T01:52:47;99360.94;;;21.97;100.00
9523;BME280;63165;43.016;25.784;2023-08-31T01:55:17;99237.13;;;21.08;100.00
9523;BME280;63165;43.016;25.784;2023-08-31T01:57:47;99317.84;;;21.44;100.00
9523;BME280;63165;43.016;25.784;2023-08-31T02:00:17;99218.09;;;21.01;100.00
9523;BME280;63165;43.016;25.784;2023-08-31T02:02:44;99239.31;;;21.14;100.00
9523;BME280;63165;43.016;25.784;2023-08-31T02:05:12;99220.69;;;20.90;100.00
9523;BME280;63165;43.016;25.784;2023-08-31T02:07:40;99263.59;;;21.33;100.00
9523;BME280;63165;43.016;25.784;2023-08-31T02:10:08;99334.28;;;21.62;100.00
9523;BME280;63165;43.016;25.784;2023-08-31T02:12:37;99329.44;;;21.56;100.00
9523;BME280;63165;43.016;25.784;2023-08-31T02:15:05;99273.53;;;20.94;100.00
9523;BME280;63165;43.016;25.784;2023-08-31T02:17:34;99252.59;;;20.90;100.00
9523;BME280;63165;43.016;25.784;2023-08-31T02:20:02;99241.44;;;20.85;100.00
9523;BME280;63165;43.016;25.784;2023-08-31T02:22:34;99254.56;;;20.75;100.00
9523;BME280;63165;43.016;25.784;2023-08-31T02:25:02;99255.06;;;20.80;100.00
9523;BME280;63165;43.016;25.784;2023-08-31T02:27:31;99246.69;;;20.73;100.00
9523;BME280;63165;43.016;25.784;2023-08-31T02:30:00;99276.03;;;21.09;100.00
9523;BME280;63165;43.016;25.784;2023-08-31T02:32:30;99250.41;;;20.84;100.00
9523;BME280;63165;43.016;25.784;2023-08-31T02:34:58;99247.00;;;20.82;100.00
9523;BME280;63165;43.016;25.784;2023-08-31T02:37:26;99293.72;;;21.10;100.00
9523;BME280;63165;43.016;25.784;2023-08-31T02:39:54;99269.69;;;21.23;100.00
9523;BME280;63165;43.016;25.784;2023-08-31T02:42:20;99258.44;;;20.95;100.00
9523;BME280;63165;43.016;25.784;2023-08-31T02:44:52;99254.00;;;20.83;100.00
9523;BME280;63165;43.016;25.784;2023-08-31T02:47:21;99349.47;;;21.48;100.00
9523;BME280;63165;43.016;25.784;2023-08-31T02:49:51;99303.06;;;21.16;100.00
9523;BME280;63165;43.016;25.784;2023-08-31T02:52:19;99378.50;;;21.64;100.00
9523;BME280;63165;43.016;25.784;2023-08-31T02:54:47;99253.38;;;20.79;100.00
9523;BME280;63165;43.016;25.784;2023-08-31T02:57:17;99268.66;;;20.88;100.00
9523;BME280;63165;43.016;25.784;2023-08-31T02:59:45;99251.34;;;20.83;100.00
9523;BME280;63165;43.016;25.784;2023-08-31T03:02:16;99261.44;;;20.78;100.00
9523;BME280;63165;43.016;25.784;2023-08-31T03:04:45;99259.88;;;20.75;100.00
9523;BME280;63165;43.016;25.784;2023-08-31T03:07:13;99287.69;;;20.95;100.00
9523;BME280;63165;43.016;25.784;2023-08-31T03:09:41;99300.75;;;20.98;100.00
9523;BME280;63165;43.016;25.784;2023-08-31T03:12:08;99258.69;;;20.66;100.00
9523;BME280;63165;43.016;25.784;2023-08-31T03:14:36;99316.63;;;20.87;100.00
9523;BME280;63165;43.016;25.784;2023-08-31T03:17:04;99250.31;;;20.47;100.00
9523;BME280;63165;43.016;25.784;2023-08-31T03:19:31;99357.50;;;21.23;100.00
9523;BME280;63165;43.016;25.784;2023-08-31T03:22:00;99231.19;;;20.42;100.00
9523;BME280;63165;43.016;25.784;2023-08-31T03:24:28;99352.66;;;20.91;100.00
9523;BME280;63165;43.016;25.784;2023-08-31T03:26:55;99258.38;;;20.58;100.00
9523;BME280;63165;43.016;25.784;2023-08-31T03:29:23;99300.16;;;20.56;100.00
9523;BME280;63165;43.016;25.784;2023-08-31T03:31:51;99264.25;;;20.50;100.00
9523;BME280;63165;43.016;25.784;2023-08-31T03:34:18;99301.44;;;20.50;100.00
9523;BME280;63165;43.016;25.784;2023-08-31T03:36:46;99290.72;;;20.52;100.00
9523;BME280;63165;43.016;25.784;2023-08-31T03:39:15;99356.03;;;21.06;100.00
9523;BME280;63165;43.016;25.784;2023-08-31T03:41:42;99274.66;;;20.41;100.00
9523;BME280;63165;43.016;25.784;2023-08-31T03:44:10;99337.50;;;20.80;100.00
9523;BME280;63165;43.016;25.784;2023-08-31T03:46:37;99313.44;;;20.56;100.00
9523;BME280;63165;43.016;25.784;2023-08-31T03:49:05;99325.88;;;20.81;100.00
9523;BME280;63165;43.016;25.784;2023-08-31T03:51:33;99271.47;;;20.48;100.00
9523;BME280;63165;43.016;25.784;2023-08-31T03:54:01;99292.31;;;20.67;100.00
9523;BME280;63165;43.016;25.784;2023-08-31T03:56:30;99319.94;;;20.78;100.00
9523;BME280;63165;43.016;25.784;2023-08-31T03:58:57;99341.97;;;20.67;100.00
9523;BME280;63165;43.016;25.784;2023-08-31T04:01:25;99323.22;;;20.43;100.00
9523;BME280;63165;43.016;25.784;2023-08-31T04:03:53;99283.59;;;20.40;100.00
9523;BME280;63165;43.016;25.784;2023-08-31T04:06:20;99299.97;;;20.33;100.00
9523;BME280;63165;43.016;25.784;2023-08-31T04:08:48;99333.34;;;20.50;100.00
9523;BME280;63165;43.016;25.784;2023-08-31T04:11:15;99362.06;;;20.84;100.00
9523;BME280;63165;43.016;25.784;2023-08-31T04:13:44;99302.47;;;20.48;100.00
9523;BME280;63165;43.016;25.784;2023-08-31T04:16:11;99272.13;;;20.39;100.00
9523;BME280;63165;43.016;25.784;2023-08-31T04:18:39;99336.72;;;20.52;100.00
9523;BME280;63165;43.016;25.784;2023-08-31T04:21:06;99338.88;;;20.73;100.00
9523;BME280;63165;43.016;25.784;2023-08-31T04:23:34;99323.69;;;20.62;100.00
9523;BME280;63165;43.016;25.784;2023-08-31T04:26:09;99385.22;;;20.94;100.00
9523;BME280;63165;43.016;25.784;2023-08-31T04:28:39;99317.91;;;20.43;100.00
9523;BME280;63165;43.016;25.784;2023-08-31T04:31:10;99412.69;;;20.95;100.00
9523;BME280;63165;43.016;25.784;2023-08-31T04:33:38;99319.50;;;20.58;100.00
9523;BME280;63165;43.016;25.784;2023-08-31T04:36:06;99278.47;;;20.36;100.00
9523;BME280;63165;43.016;25.784;2023-08-31T04:38:34;99375.28;;;21.09;100.00
9523;BME280;63165;43.016;25.784;2023-08-31T04:41:03;99351.72;;;20.66;100.00
9523;BME280;63165;43.016;25.784;2023-08-31T04:43:31;99435.19;;;21.15;100.00
9523;BME280;63165;43.016;25.784;2023-08-31T04:45:59;99332.06;;;20.56;100.00
9523;BME280;63165;43.016;25.784;2023-08-31T04:48:33;99328.13;;;20.49;100.00
9523;BME280;63165;43.016;25.784;2023-08-31T04:51:30;99400.59;;;21.15;100.00
9523;BME280;63165;43.016;25.784;2023-08-31T04:53:58;99399.03;;;21.12;100.00
9523;BME280;63165;43.016;25.784;2023-08-31T04:56:30;99394.75;;;21.23;100.00
9523;BME280;63165;43.016;25.784;2023-08-31T04:59:00;99328.25;;;20.73;100.00
9523;BME280;63165;43.016;25.784;2023-08-31T05:01:28;99421.13;;;21.39;100.00
9523;BME280;63165;43.016;25.784;2023-08-31T05:03:57;99416.84;;;21.49;100.00
9523;BME280;63165;43.016;25.784;2023-08-31T05:06:25;99398.75;;;21.41;100.00
9523;BME280;63165;43.016;25.784;2023-08-31T05:08:53;99356.84;;;20.82;100.00
9523;BME280;63165;43.016;25.784;2023-08-31T05:13:56;99379.78;;;20.96;100.00
9523;BME280;63165;43.016;25.784;2023-08-31T05:16:23;99341.63;;;20.97;100.00
9523;BME280;63165;43.016;25.784;2023-08-31T05:18:51;99343.28;;;21.11;100.00
9523;BME280;63165;43.016;25.784;2023-08-31T05:21:20;99418.19;;;21.67;100.00
9523;BME280;63165;43.016;25.784;2023-08-31T05:23:47;99345.56;;;21.28;100.00
9523;BME280;63165;43.016;25.784;2023-08-31T05:26:15;99377.03;;;21.60;100.00
9523;BME280;63165;43.016;25.784;2023-08-31T05:28:44;99367.44;;;21.58;100.00
9523;BME280;63165;43.016;25.784;2023-08-31T05:31:31;99374.13;;;21.63;100.00
9523;BME280;63165;43.016;25.784;2023-08-31T05:33:59;99365.97;;;21.78;100.00
9523;BME280;63165;43.016;25.784;2023-08-31T05:36:28;99457.84;;;22.44;100.00
9523;BME280;63165;43.016;25.784;2023-08-31T05:38:58;99414.78;;;22.14;100.00
9523;BME280;63165;43.016;25.784;2023-08-31T05:41:26;99386.84;;;21.95;100.00
9523;BME280;63165;43.016;25.784;2023-08-31T05:43:54;99449.41;;;22.62;100.00
9523;BME280;63165;43.016;25.784;2023-08-31T05:46:21;99413.69;;;22.16;100.00
9523;BME280;63165;43.016;25.784;2023-08-31T05:48:49;99409.13;;;22.18;100.00
9523;BME280;63165;43.016;25.784;2023-08-31T05:51:21;99438.72;;;22.62;100.00
9523;BME280;63165;43.016;25.784;2023-08-31T05:54:16;99417.84;;;22.44;100.00
9523;BME280;63165;43.016;25.784;2023-08-31T05:56:57;99407.56;;;22.51;100.00
9523;BME280;63165;43.016;25.784;2023-08-31T05:59:24;99349.19;;;22.24;100.00
9523;BME280;63165;43.016;25.784;2023-08-31T06:01:52;99389.88;;;22.61;100.00
9523;BME280;63165;43.016;25.784;2023-08-31T06:04:19;99409.03;;;22.78;100.00
9523;BME280;63165;43.016;25.784;2023-08-31T06:06:46;99466.13;;;23.11;100.00
9523;BME280;63165;43.016;25.784;2023-08-31T06:09:15;99364.59;;;22.90;100.00
9523;BME280;63165;43.016;25.784;2023-08-31T06:11:42;99522.19;;;23.67;100.00
9523;BME280;63165;43.016;25.784;2023-08-31T06:14:09;99437.47;;;23.47;100.00
9523;BME280;63165;43.016;25.784;2023-08-31T06:16:37;99485.50;;;23.92;100.00
9523;BME280;63165;43.016;25.784;2023-08-31T06:19:04;99451.03;;;23.77;100.00
9523;BME280;63165;43.016;25.784;2023-08-31T06:21:35;99443.97;;;23.76;100.00
9523;BME280;63165;43.016;25.784;2023-08-31T06:24:04;99469.84;;;23.87;100.00
9523;BME280;63165;43.016;25.784;2023-08-31T06:26:36;99481.72;;;24.06;100.00
9523;BME280;63165;43.016;25.784;2023-08-31T06:29:04;99526.22;;;24.39;100.00
9523;BME280;63165;43.016;25.784;2023-08-31T06:31:31;99525.94;;;24.53;100.00
9523;BME280;63165;43.016;25.784;2023-08-31T06:34:05;99436.09;;;23.86;100.00
9523;BME280;63165;43.016;25.784;2023-08-31T06:36:36;99459.75;;;24.34;100.00
9523;BME280;63165;43.016;25.784;2023-08-31T06:39:03;99506.91;;;24.68;100.00
9523;BME280;63165;43.016;25.784;2023-08-31T06:41:31;99408.16;;;24.22;100.00
9523;BME280;63165;43.016;25.784;2023-08-31T06:44:01;99431.63;;;24.40;100.00
9523;BME280;63165;43.016;25.784;2023-08-31T06:46:29;99516.22;;;24.94;100.00
9523;BME280;63165;43.016;25.784;2023-08-31T06:48:59;99508.66;;;24.99;100.00
9523;BME280;63165;43.016;25.784;2023-08-31T06:51:27;99496.00;;;24.80;99.89
9523;BME280;63165;43.016;25.784;2023-08-31T06:53:55;99422.09;;;24.58;96.68
9523;BME280;63165;43.016;25.784;2023-08-31T06:56:27;99464.50;;;24.84;94.71
9523;BME280;63165;43.016;25.784;2023-08-31T06:58:54;99453.50;;;24.87;93.98
9523;BME280;63165;43.016;25.784;2023-08-31T07:01:36;99481.88;;;25.21;95.65
9523;BME280;63165;43.016;25.784;2023-08-31T07:04:04;99529.44;;;25.59;95.40
9523;BME280;63165;43.016;25.784;2023-08-31T07:06:34;99539.66;;;25.75;92.89
9523;BME280;63165;43.016;25.784;2023-08-31T07:09:20;99451.47;;;25.22;92.56
9523;BME280;63165;43.016;25.784;2023-08-31T07:11:47;99553.16;;;25.94;92.04
9523;BME280;63165;43.016;25.784;2023-08-31T07:14:18;99501.28;;;25.65;90.34
9523;BME280;63165;43.016;25.784;2023-08-31T07:16:46;99522.16;;;26.11;89.64
9523;BME280;63165;43.016;25.784;2023-08-31T07:19:14;99545.41;;;26.01;87.80
9523;BME280;63165;43.016;25.784;2023-08-31T07:21:41;99534.19;;;26.27;87.65
9523;BME280;63165;43.016;25.784;2023-08-31T07:24:08;99570.53;;;26.60;87.30
9523;BME280;63165;43.016;25.784;2023-08-31T07:26:35;99552.69;;;26.59;87.26
9523;BME280;63165;43.016;25.784;2023-08-31T07:29:03;99544.94;;;26.56;86.06
9523;BME280;63165;43.016;25.784;2023-08-31T07:31:30;99541.97;;;26.69;85.09
9523;BME280;63165;43.016;25.784;2023-08-31T07:33:59;99554.28;;;26.81;85.03
9523;BME280;63165;43.016;25.784;2023-08-31T07:36:26;99567.13;;;26.97;83.20
9523;BME280;63165;43.016;25.784;2023-08-31T07:38:54;99553.69;;;27.07;82.10
9523;BME280;63165;43.016;25.784;2023-08-31T07:41:21;99530.50;;;27.06;80.89
9523;BME280;63165;43.016;25.784;2023-08-31T07:43:48;99547.56;;;27.44;80.96
9523;BME280;63165;43.016;25.784;2023-08-31T07:46:16;99526.81;;;27.26;76.33
9523;BME280;63165;43.016;25.784;2023-08-31T07:48:44;99559.53;;;27.59;74.12
9523;BME280;63165;43.016;25.784;2023-08-31T07:51:17;99537.53;;;27.36;76.42
9523;BME280;63165;43.016;25.784;2023-08-31T07:53:48;99542.00;;;27.55;78.42
9523;BME280;63165;43.016;25.784;2023-08-31T07:56:16;99539.09;;;27.76;79.32
9523;BME280;63165;43.016;25.784;2023-08-31T07:58:44;99568.22;;;28.08;76.78
9523;BME280;63165;43.016;25.784;2023-08-31T08:01:11;99573.59;;;28.36;78.36
9523;BME280;63165;43.016;25.784;2023-08-31T08:03:38;99566.66;;;28.52;75.18
9523;BME280;63165;43.016;25.784;2023-08-31T08:06:05;99577.34;;;28.71;72.10
9523;BME280;63165;43.016;25.784;2023-08-31T08:08:34;99556.88;;;28.60;69.47
9523;BME280;63165;43.016;25.784;2023-08-31T08:11:04;99591.53;;;28.99;69.27
9523;BME280;63165;43.016;25.784;2023-08-31T08:13:31;99580.97;;;29.06;65.97
9523;BME280;63165;43.016;25.784;2023-08-31T08:15:59;99566.16;;;29.20;65.37
9523;BME280;63165;43.016;25.784;2023-08-31T08:18:26;99572.22;;;29.48;64.35
9523;BME280;63165;43.016;25.784;2023-08-31T08:20:54;99571.28;;;29.66;63.17
9523;BME280;63165;43.016;25.784;2023-08-31T08:23:21;99565.75;;;29.67;60.16
9523;BME280;63165;43.016;25.784;2023-08-31T08:25:51;99591.94;;;29.75;60.31
9523;BME280;63165;43.016;25.784;2023-08-31T08:28:19;99570.22;;;29.76;60.31
9523;BME280;63165;43.016;25.784;2023-08-31T08:30:46;99566.19;;;29.80;60.69
9523;BME280;63165;43.016;25.784;2023-08-31T08:33:15;99576.28;;;29.78;61.83
9523;BME280;63165;43.016;25.784;2023-08-31T08:35:44;99543.19;;;29.42;60.98
9523;BME280;63165;43.016;25.784;2023-08-31T08:38:12;99572.22;;;29.74;63.63
9523;BME280;63165;43.016;25.784;2023-08-31T08:40:39;99579.22;;;29.93;61.71
9523;BME280;63165;43.016;25.784;2023-08-31T08:43:08;99585.31;;;30.04;61.77
9523;BME280;63165;43.016;25.784;2023-08-31T08:45:38;99577.94;;;30.14;59.05
9523;BME280;63165;43.016;25.784;2023-08-31T08:48:08;99555.53;;;30.22;59.31
9523;BME280;63165;43.016;25.784;2023-08-31T08:50:36;99584.31;;;30.47;54.88
9523;BME280;63165;43.016;25.784;2023-08-31T08:53:04;99559.50;;;30.44;55.71
9523;BME280;63165;43.016;25.784;2023-08-31T08:55:32;99583.16;;;30.74;54.53
9523;BME280;63165;43.016;25.784;2023-08-31T08:58:00;99574.56;;;30.79;53.82
9523;BME280;63165;43.016;25.784;2023-08-31T09:00:30;99572.69;;;30.71;53.48
9523;BME280;63165;43.016;25.784;2023-08-31T09:02:58;99592.13;;;30.75;54.11
9523;BME280;63165;43.016;25.784;2023-08-31T09:05:26;99590.22;;;30.59;52.66
9523;BME280;63165;43.016;25.784;2023-08-31T09:08:04;99602.22;;;30.56;53.40
9523;BME280;63165;43.016;25.784;2023-08-31T09:10:36;99592.56;;;30.46;53.22
9523;BME280;63165;43.016;25.784;2023-08-31T09:13:07;99605.03;;;30.38;52.32
9523;BME280;63165;43.016;25.784;2023-08-31T09:15:44;99607.97;;;30.19;53.06
9523;BME280;63165;43.016;25.784;2023-08-31T09:18:16;99604.03;;;30.05;54.16
9523;BME280;63165;43.016;25.784;2023-08-31T09:20:44;99598.63;;;29.97;53.00
9523;BME280;63165;43.016;25.784;2023-08-31T09:23:12;99599.75;;;29.86;53.86
9523;BME280;63165;43.016;25.784;2023-08-31T09:25:43;99604.25;;;29.77;53.06
9523;BME280;63165;43.016;25.784;2023-08-31T09:28:11;99582.56;;;29.61;54.02
9523;BME280;63165;43.016;25.784;2023-08-31T09:30:39;99586.25;;;29.60;52.00
9523;BME280;63165;43.016;25.784;2023-08-31T09:33:09;99588.16;;;29.68;53.37
9523;BME280;63165;43.016;25.784;2023-08-31T09:35:40;99591.19;;;29.65;52.38
9523;BME280;63165;43.016;25.784;2023-08-31T09:38:08;99593.16;;;29.62;52.66
9523;BME280;63165;43.016;25.784;2023-08-31T09:40:36;99592.50;;;29.60;53.15
9523;BME280;63165;43.016;25.784;2023-08-31T09:43:04;99599.28;;;29.65;53.30
9523;BME280;63165;43.016;25.784;2023-08-31T09:45:32;99589.94;;;29.59;53.04
9523;BME280;63165;43.016;25.784;2023-08-31T09:48:01;99571.41;;;29.56;50.82
9523;BME280;63165;43.016;25.784;2023-08-31T09:50:31;99588.13;;;29.59;52.30
9523;BME280;63165;43.016;25.784;2023-08-31T09:53:01;99595.88;;;29.62;53.54
9523;BME280;63165;43.016;25.784;2023-08-31T09:55:31;99599.28;;;29.65;51.11
9523;BME280;63165;43.016;25.784;2023-08-31T09:57:59;99597.56;;;29.64;50.33
9523;BME280;63165;43.016;25.784;2023-08-31T10:00:29;99611.28;;;29.70;52.81
9523;BME280;63165;43.016;25.784;2023-08-31T10:03:01;99597.06;;;29.68;51.74
9523;BME280;63165;43.016;25.784;2023-08-31T10:05:30;99603.66;;;29.66;51.26
9523;BME280;63165;43.016;25.784;2023-08-31T10:07:59;99609.56;;;29.69;52.78
9523;BME280;63165;43.016;25.784;2023-08-31T10:10:27;99607.72;;;29.70;54.17
9523;BME280;63165;43.016;25.784;2023-08-31T10:12:55;99612.09;;;29.71;54.15
9523;BME280;63165;43.016;25.784;2023-08-31T10:15:23;99611.19;;;29.80;54.36
9523;BME280;63165;43.016;25.784;2023-08-31T10:17:53;99593.63;;;29.76;52.29
9523;BME280;63165;43.016;25.784;2023-08-31T10:20:20;99612.41;;;29.94;51.42
9523;BME280;63165;43.016;25.784;2023-08-31T10:22:49;99607.69;;;29.96;50.81
9523;BME280;63165;43.016;25.784;2023-08-31T10:25:16;99593.16;;;29.89;51.31
9523;BME280;63165;43.016;25.784;2023-08-31T10:27:44;99588.94;;;29.86;50.78
9523;BME280;63165;43.016;25.784;2023-08-31T10:30:24;99603.28;;;29.87;50.71
9523;BME280;63165;43.016;25.784;2023-08-31T10:33:20;99609.03;;;29.92;50.99
9523;BME280;63165;43.016;25.784;2023-08-31T10:35:49;99600.41;;;29.88;52.03
9523;BME280;63165;43.016;25.784;2023-08-31T10:38:24;99601.09;;;29.90;52.67
9523;BME280;63165;43.016;25.784;2023-08-31T10:41:03;99601.09;;;29.90;52.86
9523;BME280;63165;43.016;25.784;2023-08-31T10:43:46;99610.25;;;29.97;51.93
9523;BME280;63165;43.016;25.784;2023-08-31T10:46:18;99614.66;;;30.07;51.13
9523;BME280;63165;43.016;25.784;2023-08-31T10:48:53;99608.81;;;30.19;51.33
9523;BME280;63165;43.016;25.784;2023-08-31T10:51:25;99613.66;;;30.42;49.18
9523;BME280;63165;43.016;25.784;2023-08-31T10:54:04;99606.75;;;30.56;49.13
9523;BME280;63165;43.016;25.784;2023-08-31T10:56:31;99610.66;;;30.78;47.72
9523;BME280;63165;43.016;25.784;2023-08-31T10:58:59;99606.28;;;30.85;46.52
9523;BME280;63165;43.016;25.784;2023-08-31T11:01:54;99606.81;;;30.97;47.81
9523;BME280;63165;43.016;25.784;2023-08-31T11:04:22;99609.72;;;31.04;46.49
9523;BME280;63165;43.016;25.784;2023-08-31T11:07:12;99589.56;;;30.90;46.58
9523;BME280;63165;43.016;25.784;2023-08-31T11:09:41;99617.13;;;31.10;45.87
9523;BME280;63165;43.016;25.784;2023-08-31T11:12:09;99623.38;;;31.10;46.19
9523;BME280;63165;43.016;25.784;2023-08-31T11:14:37;99625.75;;;31.05;46.93
9523;BME280;63165;43.016;25.784;2023-08-31T11:17:05;99620.84;;;31.01;47.70
9523;BME280;63165;43.016;25.784;2023-08-31T11:19:33;99622.19;;;31.05;47.86
9523;BME280;63165;43.016;25.784;2023-08-31T11:22:01;99604.09;;;30.89;46.98
9523;BME280;63165;43.016;25.784;2023-08-31T11:24:29;99615.59;;;30.99;46.43
9523;BME280;63165;43.016;25.784;2023-08-31T11:26:58;99618.13;;;31.01;46.41
9523;BME280;63165;43.016;25.784;2023-08-31T11:29:29;99628.28;;;31.07;46.39
9523;BME280;63165;43.016;25.784;2023-08-31T11:31:56;99633.69;;;30.99;46.96
9523;BME280;63165;43.016;25.784;2023-08-31T11:34:25;99620.78;;;30.68;48.78
9523;BME280;63165;43.016;25.784;2023-08-31T11:36:53;99612.81;;;30.50;48.92
9523;BME280;63165;43.016;25.784;2023-08-31T11:39:20;99653.31;;;30.50;48.90
9523;BME280;63165;43.016;25.784;2023-08-31T11:41:47;99648.31;;;30.29;49.71
9523;BME280;63165;43.016;25.784;2023-08-31T11:44:17;99649.06;;;30.05;51.64
9523;BME280;63165;43.016;25.784;2023-08-31T11:46:45;99651.94;;;29.77;52.83
9523;BME280;63165;43.016;25.784;2023-08-31T11:49:16;99630.22;;;29.34;54.77
9523;BME280;63165;43.016;25.784;2023-08-31T11:51:45;99638.66;;;29.13;56.06
9523;BME280;63165;43.016;25.784;2023-08-31T11:54:13;99650.69;;;28.91;57.60
9523;BME280;63165;43.016;25.784;2023-08-31T11:56:40;99658.47;;;28.76;59.34
9523;BME280;63165;43.016;25.784;2023-08-31T11:59:09;99674.47;;;28.60;61.53
9523;BME280;63165;43.016;25.784;2023-08-31T12:01:40;99669.28;;;28.39;61.73
9523;BME280;63165;43.016;25.784;2023-08-31T12:04:12;99662.44;;;28.17;62.95
9523;BME280;63165;43.016;25.784;2023-08-31T12:06:40;99674.13;;;27.98;65.57
9523;BME280;63165;43.016;25.784;2023-08-31T12:09:08;99670.50;;;27.69;69.78
9523;BME280;63165;43.016;25.784;2023-08-31T12:11:36;99656.13;;;27.51;72.18
9523;BME280;63165;43.016;25.784;2023-08-31T12:14:04;99635.81;;;27.29;74.50
9523;BME280;63165;43.016;25.784;2023-08-31T12:16:46;99642.44;;;27.15;75.21
9523;BME280;63165;43.016;25.784;2023-08-31T12:19:13;99640.75;;;27.14;77.76
9523;BME280;63165;43.016;25.784;2023-08-31T12:21:42;99630.56;;;26.98;78.75
9523;BME280;63165;43.016;25.784;2023-08-31T12:24:10;99632.81;;;26.93;78.37
9523;BME280;63165;43.016;25.784;2023-08-31T12:26:37;99626.34;;;26.86;77.63
9523;BME280;63165;43.016;25.784;2023-08-31T12:29:04;99615.16;;;26.90;78.09
9523;BME280;63165;43.016;25.784;2023-08-31T12:31:32;99645.56;;;27.10;76.60
9523;BME280;63165;43.016;25.784;2023-08-31T12:34:01;99628.72;;;27.18;74.71
9523;BME280;63165;43.016;25.784;2023-08-31T12:36:30;99616.00;;;27.30;73.88
9523;BME280;63165;43.016;25.784;2023-08-31T12:38:57;99617.97;;;27.38;73.39
9523;BME280;63165;43.016;25.784;2023-08-31T12:41:27;99628.69;;;27.57;73.08
9523;BME280;63165;43.016;25.784;2023-08-31T12:43:54;99604.47;;;27.67;69.96
9523;BME280;63165;43.016;25.784;2023-08-31T12:46:21;99627.47;;;27.79;67.72
9523;BME280;63165;43.016;25.784;2023-08-31T12:48:49;99614.19;;;27.78;68.19
9523;BME280;63165;43.016;25.784;2023-08-31T12:51:18;99605.59;;;27.74;69.34
9523;BME280;63165;43.016;25.784;2023-08-31T12:53:45;99595.66;;;27.75;70.76
9523;BME280;63165;43.016;25.784;2023-08-31T12:56:12;99602.44;;;27.79;71.34
9523;BME280;63165;43.016;25.784;2023-08-31T12:58:40;99590.28;;;27.75;71.19
9523;BME280;63165;43.016;25.784;2023-08-31T13:01:08;99589.56;;;27.82;71.56
9523;BME280;63165;43.016;25.784;2023-08-31T13:03:35;99602.97;;;28.02;72.07
9523;BME280;63165;43.016;25.784;2023-08-31T13:06:02;99595.75;;;28.20;71.64
9523;BME280;63165;43.016;25.784;2023-08-31T13:08:31;99584.63;;;28.33;70.00
9523;BME280;63165;43.016;25.784;2023-08-31T13:10:58;99617.53;;;28.55;70.68